sensor_id;sensor_type;location;lat;lon;timestamp;temperature;humidity
11454;DHT22;5783;55.174;61.310;2023-11-21T00:01:51;26.10;16.80
11454;DHT22;5783;55.174;61.310;2023-11-21T00:04:19;26.10;17.00
11454;DHT22;5783;55.174;61.310;2023-11-21T00:06:47;26.10;17.00
11454;DHT22;5783;55.174;61.310;2023-11-21T00:09:15;26.20;16.90
11454;DHT22;5783;55.174;61.310;2023-11-21T00:11:44;26.10;17.00
11454;DHT22;5783;55.174;61.310;2023-11-21T00:14:12;26.10;17.20
11454;DHT22;5783;55.174;61.310;2023-11-21T00:16:41;26.20;16.80
11454;DHT22;5783;55.174;61.310;2023-11-21T00:19:09;26.20;17.00
11454;DHT22;5783;55.174;61.310;2023-11-21T00:21:38;26.20;17.10
11454;DHT22;5783;55.174;61.310;2023-11-21T00:24:06;26.30;17.10
11454;DHT22;5783;55.174;61.310;2023-11-21T00:26:35;26.30;16.90
11454;DHT22;5783;55.174;61.310;2023-11-21T00:29:04;26.30;17.00
11454;DHT22;5783;55.174;61.310;2023-11-21T00:31:34;26.30;17.30
11454;DHT22;5783;55.174;61.310;2023-11-21T00:34:03;26.30;17.20
11454;DHT22;5783;55.174;61.310;2023-11-21T00:36:51;26.40;17.00
11454;DHT22;5783;55.174;61.310;2023-11-21T00:39:19;26.30;17.00
11454;DHT22;5783;55.174;61.310;2023-11-21T00:41:47;26.30;17.00
11454;DHT22;5783;55.174;61.310;2023-11-21T00:44:15;26.30;16.90
11454;DHT22;5783;55.174;61.310;2023-11-21T00:46:43;26.30;17.00
11454;DHT22;5783;55.174;61.310;2023-11-21T00:49:13;26.30;17.00
11454;DHT22;5783;55.174;61.310;2023-11-21T00:51:41;26.30;16.80
11454;DHT22;5783;55.174;61.310;2023-11-21T00:54:09;26.30;16.90
11454;DHT22;5783;55.174;61.310;2023-11-21T00:56:38;26.30;17.00
11454;DHT22;5783;55.174;61.310;2023-11-21T00:59:06;26.30;16.90
11454;DHT22;5783;55.174;61.310;2023-11-21T01:01:34;26.30;17.10
11454;DHT22;5783;55.174;61.310;2023-11-21T01:04:03;26.30;16.90
11454;DHT22;5783;55.174;61.310;2023-11-21T01:06:32;26.30;17.00
11454;DHT22;5783;55.174;61.310;2023-11-21T01:09:01;26.30;17.00
11454;DHT22;5783;55.174;61.310;2023-11-21T01:11:30;26.30;16.80
11454;DHT22;5783;55.174;61.310;2023-11-21T01:14:00;26.30;16.80
11454;DHT22;5783;55.174;61.310;2023-11-21T01:16:29;26.30;16.80
11454;DHT22;5783;55.174;61.310;2023-11-21T01:18:59;26.20;16.80
11454;DHT22;5783;55.174;61.310;2023-11-21T01:21:27;26.20;16.90
11454;DHT22;5783;55.174;61.310;2023-11-21T01:23:56;26.20;16.90
11454;DHT22;5783;55.174;61.310;2023-11-21T01:26:24;26.20;16.90
11454;DHT22;5783;55.174;61.310;2023-11-21T01:28:53;26.20;16.90
11454;DHT22;5783;55.174;61.310;2023-11-21T01:31:21;26.20;16.90
11454;DHT22;5783;55.174;61.310;2023-11-21T01:33:49;26.20;16.90
11454;DHT22;5783;55.174;61.310;2023-11-21T01:36:17;26.20;16.90
11454;DHT22;5783;55.174;61.310;2023-11-21T01:38:45;26.20;16.90
11454;DHT22;5783;55.174;61.310;2023-11-21T01:41:15;26.20;17.00
11454;DHT22;5783;55.174;61.310;2023-11-21T01:43:43;26.20;17.00
11454;DHT22;5783;55.174;61.310;2023-11-21T01:46:11;26.20;17.10
11454;DHT22;5783;55.174;61.310;2023-11-21T01:48:41;26.20;17.20
11454;DHT22;5783;55.174;61.310;2023-11-21T01:51:11;26.20;17.00
11454;DHT22;5783;55.174;61.310;2023-11-21T01:53:39;26.20;17.10
11454;DHT22;5783;55.174;61.310;2023-11-21T01:56:07;26.20;17.10
11454;DHT22;5783;55.174;61.310;2023-11-21T01:58:36;26.20;17.20
11454;DHT22;5783;55.174;61.310;2023-11-21T02:01:04;26.20;17.30
11454;DHT22;5783;55.174;61.310;2023-11-21T02:03:32;26.20;17.20
11454;DHT22;5783;55.174;61.310;2023-11-21T02:06:01;26.10;17.10
11454;DHT22;5783;55.174;61.310;2023-11-21T02:08:29;26.10;17.20
11454;DHT22;5783;55.174;61.310;2023-11-21T02:10:57;26.10;17.20
11454;DHT22;5783;55.174;61.310;2023-11-21T02:13:25;26.10;17.20
11454;DHT22;5783;55.174;61.310;2023-11-21T02:15:54;26.20;17.20
11454;DHT22;5783;55.174;61.310;2023-11-21T02:18:22;26.10;17.20
11454;DHT22;5783;55.174;61.310;2023-11-21T02:20:50;26.10;17.20
11454;DHT22;5783;55.174;61.310;2023-11-21T02:23:18;26.10;17.30
11454;DHT22;5783;55.174;61.310;2023-11-21T02:25:47;26.10;17.30
11454;DHT22;5783;55.174;61.310;2023-11-21T02:28:15;26.10;17.50
11454;DHT22;5783;55.174;61.310;2023-11-21T02:30:45;26.10;17.50
11454;DHT22;5783;55.174;61.310;2023-11-21T02:33:15;26.20;17.40
11454;DHT22;5783;55.174;61.310;2023-11-21T02:35:43;26.20;17.40
11454;DHT22;5783;55.174;61.310;2023-11-21T02:38:11;26.30;17.60
11454;DHT22;5783;55.174;61.310;2023-11-21T02:40:39;26.30;17.50
11454;DHT22;5783;55.174;61.310;2023-11-21T02:43:08;26.30;16.90
11454;DHT22;5783;55.174;61.310;2023-11-21T02:45:36;26.30;17.40
11454;DHT22;5783;55.174;61.310;2023-11-21T02:48:04;26.30;17.40
11454;DHT22;5783;55.174;61.310;2023-11-21T02:50:32;26.30;17.50
11454;DHT22;5783;55.174;61.310;2023-11-21T02:53:01;26.30;17.50
11454;DHT22;5783;55.174;61.310;2023-11-21T02:55:31;26.30;17.60
11454;DHT22;5783;55.174;61.310;2023-11-21T02:58:02;26.30;17.70
11454;DHT22;5783;55.174;61.310;2023-11-21T03:00:32;26.30;17.50
11454;DHT22;5783;55.174;61.310;2023-11-21T03:03:00;26.30;17.40
11454;DHT22;5783;55.174;61.310;2023-11-21T03:05:28;26.40;17.40
11454;DHT22;5783;55.174;61.310;2023-11-21T03:07:57;26.30;17.60
11454;DHT22;5783;55.174;61.310;2023-11-21T03:10:25;26.30;17.60
11454;DHT22;5783;55.174;61.310;2023-11-21T03:12:55;26.40;17.50
11454;DHT22;5783;55.174;61.310;2023-11-21T03:15:23;26.40;17.60
11454;DHT22;5783;55.174;61.310;2023-11-21T03:17:51;26.40;17.50
11454;DHT22;5783;55.174;61.310;2023-11-21T03:20:20;26.40;17.60
11454;DHT22;5783;55.174;61.310;2023-11-21T03:22:48;26.40;17.60
11454;DHT22;5783;55.174;61.310;2023-11-21T03:25:16;26.40;17.70
11454;DHT22;5783;55.174;61.310;2023-11-21T03:27:46;26.30;17.90
11454;DHT22;5783;55.174;61.310;2023-11-21T03:30:14;26.30;17.80
11454;DHT22;5783;55.174;61.310;2023-11-21T03:32:43;26.30;17.80
11454;DHT22;5783;55.174;61.310;2023-11-21T03:35:11;26.30;17.90
11454;DHT22;5783;55.174;61.310;2023-11-21T03:37:39;26.30;17.90
11454;DHT22;5783;55.174;61.310;2023-11-21T03:40:09;26.30;17.90
11454;DHT22;5783;55.174;61.310;2023-11-21T03:42:38;26.40;17.90
11454;DHT22;5783;55.174;61.310;2023-11-21T03:45:08;26.40;17.90
11454;DHT22;5783;55.174;61.310;2023-11-21T03:47:38;26.40;18.00
11454;DHT22;5783;55.174;61.310;2023-11-21T03:50:06;26.40;17.90
11454;DHT22;5783;55.174;61.310;2023-11-21T03:52:35;26.50;18.00
11454;DHT22;5783;55.174;61.310;2023-11-21T03:55:03;26.50;18.10
11454;DHT22;5783;55.174;61.310;2023-11-21T03:57:32;26.50;17.90
11454;DHT22;5783;55.174;61.310;2023-11-21T04:00:00;26.60;17.90
11454;DHT22;5783;55.174;61.310;2023-11-21T04:02:30;26.50;17.90
11454;DHT22;5783;55.174;61.310;2023-11-21T04:04:59;26.60;17.90
11454;DHT22;5783;55.174;61.310;2023-11-21T04:07:27;26.50;17.90
11454;DHT22;5783;55.174;61.310;2023-11-21T04:09:55;26.60;18.20
11454;DHT22;5783;55.174;61.310;2023-11-21T04:12:23;26.60;18.00
11454;DHT22;5783;55.174;61.310;2023-11-21T04:14:51;26.60;18.00
11454;DHT22;5783;55.174;61.310;2023-11-21T04:17:20;26.70;17.80
11454;DHT22;5783;55.174;61.310;2023-11-21T04:19:48;26.70;18.00
11454;DHT22;5783;55.174;61.310;2023-11-21T04:22:16;26.70;17.80
11454;DHT22;5783;55.174;61.310;2023-11-21T04:24:44;26.70;17.90
11454;DHT22;5783;55.174;61.310;2023-11-21T04:27:12;26.70;17.80
11454;DHT22;5783;55.174;61.310;2023-11-21T04:29:40;26.70;17.70
11454;DHT22;5783;55.174;61.310;2023-11-21T04:32:09;26.80;18.10
11454;DHT22;5783;55.174;61.310;2023-11-21T04:34:38;26.80;18.00
11454;DHT22;5783;55.174;61.310;2023-11-21T04:37:06;26.80;18.00
11454;DHT22;5783;55.174;61.310;2023-11-21T04:39:36;26.90;18.30
11454;DHT22;5783;55.174;61.310;2023-11-21T04:42:05;26.90;18.80
11454;DHT22;5783;55.174;61.310;2023-11-21T04:44:33;27.00;17.90
11454;DHT22;5783;55.174;61.310;2023-11-21T04:47:01;27.10;17.70
11454;DHT22;5783;55.174;61.310;2023-11-21T04:49:30;27.10;18.60
11454;DHT22;5783;55.174;61.310;2023-11-21T04:51:59;27.40;18.60
11454;DHT22;5783;55.174;61.310;2023-11-21T04:54:27;27.50;18.60
11454;DHT22;5783;55.174;61.310;2023-11-21T04:56:56;27.70;18.40
11454;DHT22;5783;55.174;61.310;2023-11-21T04:59:26;27.90;18.20
11454;DHT22;5783;55.174;61.310;2023-11-21T05:01:54;28.00;18.20
11454;DHT22;5783;55.174;61.310;2023-11-21T05:04:22;28.00;18.10
11454;DHT22;5783;55.174;61.310;2023-11-21T05:06:51;28.10;18.40
11454;DHT22;5783;55.174;61.310;2023-11-21T05:09:19;28.20;18.30
11454;DHT22;5783;55.174;61.310;2023-11-21T05:11:48;28.30;18.30
11454;DHT22;5783;55.174;61.310;2023-11-21T05:14:16;28.20;16.00
11454;DHT22;5783;55.174;61.310;2023-11-21T05:16:44;27.70;15.70
11454;DHT22;5783;55.174;61.310;2023-11-21T05:19:13;27.30;15.40
11454;DHT22;5783;55.174;61.310;2023-11-21T05:21:41;27.10;15.70
11454;DHT22;5783;55.174;61.310;2023-11-21T05:24:09;26.90;15.60
11454;DHT22;5783;55.174;61.310;2023-11-21T05:26:38;26.60;15.10
11454;DHT22;5783;55.174;61.310;2023-11-21T05:29:07;26.40;15.20
11454;DHT22;5783;55.174;61.310;2023-11-21T05:31:37;26.10;15.30
11454;DHT22;5783;55.174;61.310;2023-11-21T05:34:07;25.80;15.40
11454;DHT22;5783;55.174;61.310;2023-11-21T05:36:36;25.40;15.30
11454;DHT22;5783;55.174;61.310;2023-11-21T05:39:05;25.00;15.50
11454;DHT22;5783;55.174;61.310;2023-11-21T05:41:34;24.80;15.80
11454;DHT22;5783;55.174;61.310;2023-11-21T05:44:04;24.70;16.00
11454;DHT22;5783;55.174;61.310;2023-11-21T05:46:33;24.70;16.00
11454;DHT22;5783;55.174;61.310;2023-11-21T05:49:02;24.50;15.90
11454;DHT22;5783;55.174;61.310;2023-11-21T05:51:31;24.30;16.10
11454;DHT22;5783;55.174;61.310;2023-11-21T05:54:00;24.20;16.20
11454;DHT22;5783;55.174;61.310;2023-11-21T05:56:29;24.20;16.20
11454;DHT22;5783;55.174;61.310;2023-11-21T05:58:59;24.10;16.30
11454;DHT22;5783;55.174;61.310;2023-11-21T06:01:29;23.90;16.60
11454;DHT22;5783;55.174;61.310;2023-11-21T06:03:59;23.80;16.40
11454;DHT22;5783;55.174;61.310;2023-11-21T06:06:28;23.60;16.40
11454;DHT22;5783;55.174;61.310;2023-11-21T06:08:57;23.30;16.50
11454;DHT22;5783;55.174;61.310;2023-11-21T06:11:27;23.20;16.80
11454;DHT22;5783;55.174;61.310;2023-11-21T06:13:56;23.10;16.80
11454;DHT22;5783;55.174;61.310;2023-11-21T06:16:25;22.90;17.00
11454;DHT22;5783;55.174;61.310;2023-11-21T06:18:54;22.60;17.00
11454;DHT22;5783;55.174;61.310;2023-11-21T06:21:23;22.50;17.20
11454;DHT22;5783;55.174;61.310;2023-11-21T06:23:52;22.40;17.30
11454;DHT22;5783;55.174;61.310;2023-11-21T06:26:23;22.30;17.50
11454;DHT22;5783;55.174;61.310;2023-11-21T06:28:53;22.20;17.40
11454;DHT22;5783;55.174;61.310;2023-11-21T06:31:23;22.00;17.60
11454;DHT22;5783;55.174;61.310;2023-11-21T06:33:52;22.00;17.90
11454;DHT22;5783;55.174;61.310;2023-11-21T06:36:22;22.00;17.60
11454;DHT22;5783;55.174;61.310;2023-11-21T06:38:51;22.00;17.70
11454;DHT22;5783;55.174;61.310;2023-11-21T06:41:20;22.00;17.30
11454;DHT22;5783;55.174;61.310;2023-11-21T06:43:50;22.10;17.30
11454;DHT22;5783;55.174;61.310;2023-11-21T06:46:19;22.20;17.70
11454;DHT22;5783;55.174;61.310;2023-11-21T06:48:48;22.10;17.60
11454;DHT22;5783;55.174;61.310;2023-11-21T06:51:18;22.10;17.70
11454;DHT22;5783;55.174;61.310;2023-11-21T06:53:47;22.00;17.70
11454;DHT22;5783;55.174;61.310;2023-11-21T06:56:18;21.90;17.80
11454;DHT22;5783;55.174;61.310;2023-11-21T06:58:47;22.00;17.90
11454;DHT22;5783;55.174;61.310;2023-11-21T07:01:17;22.40;18.70
11454;DHT22;5783;55.174;61.310;2023-11-21T07:03:47;22.70;18.90
11454;DHT22;5783;55.174;61.310;2023-11-21T07:06:16;23.00;19.10
11454;DHT22;5783;55.174;61.310;2023-11-21T07:08:45;23.30;19.00
11454;DHT22;5783;55.174;61.310;2023-11-21T07:11:14;23.50;18.40
11454;DHT22;5783;55.174;61.310;2023-11-21T07:13:44;23.80;18.90
11454;DHT22;5783;55.174;61.310;2023-11-21T07:16:13;24.00;18.80
11454;DHT22;5783;55.174;61.310;2023-11-21T07:18:42;24.20;18.30
11454;DHT22;5783;55.174;61.310;2023-11-21T07:21:11;24.30;18.60
11454;DHT22;5783;55.174;61.310;2023-11-21T07:23:42;24.50;18.70
11454;DHT22;5783;55.174;61.310;2023-11-21T07:26:12;24.70;18.60
11454;DHT22;5783;55.174;61.310;2023-11-21T07:28:41;24.80;18.20
11454;DHT22;5783;55.174;61.310;2023-11-21T07:31:10;24.90;18.10
11454;DHT22;5783;55.174;61.310;2023-11-21T07:33:39;25.00;17.90
11454;DHT22;5783;55.174;61.310;2023-11-21T07:36:09;25.20;17.80
11454;DHT22;5783;55.174;61.310;2023-11-21T07:38:38;25.30;17.90
11454;DHT22;5783;55.174;61.310;2023-11-21T07:41:08;25.40;17.90
11454;DHT22;5783;55.174;61.310;2023-11-21T07:43:37;25.40;17.90
11454;DHT22;5783;55.174;61.310;2023-11-21T07:46:07;25.50;17.80
11454;DHT22;5783;55.174;61.310;2023-11-21T07:48:36;25.60;17.60
11454;DHT22;5783;55.174;61.310;2023-11-21T07:51:05;25.60;17.60
11454;DHT22;5783;55.174;61.310;2023-11-21T07:56:07;25.80;17.50
11454;DHT22;5783;55.174;61.310;2023-11-21T07:58:37;25.90;18.00
11454;DHT22;5783;55.174;61.310;2023-11-21T08:01:06;25.90;17.50
11454;DHT22;5783;55.174;61.310;2023-11-21T08:03:35;26.00;17.20
11454;DHT22;5783;55.174;61.310;2023-11-21T08:06:05;26.10;17.50
11454;DHT22;5783;55.174;61.310;2023-11-21T08:08:34;26.10;17.40
11454;DHT22;5783;55.174;61.310;2023-11-21T08:11:04;26.20;17.10
11454;DHT22;5783;55.174;61.310;2023-11-21T08:13:34;26.30;17.20
11454;DHT22;5783;55.174;61.310;2023-11-21T08:16:05;26.30;17.20
11454;DHT22;5783;55.174;61.310;2023-11-21T08:18:35;26.40;17.00
11454;DHT22;5783;55.174;61.310;2023-11-21T08:21:04;26.50;17.00
11454;DHT22;5783;55.174;61.310;2023-11-21T08:23:35;26.50;17.00
11454;DHT22;5783;55.174;61.310;2023-11-21T08:26:06;26.50;17.10
11454;DHT22;5783;55.174;61.310;2023-11-21T08:28:35;26.60;17.10
11454;DHT22;5783;55.174;61.310;2023-11-21T08:31:04;26.60;17.20
11454;DHT22;5783;55.174;61.310;2023-11-21T08:33:33;26.60;17.30
11454;DHT22;5783;55.174;61.310;2023-11-21T08:38:53;26.60;17.20
11454;DHT22;5783;55.174;61.310;2023-11-21T08:41:22;26.60;17.00
11454;DHT22;5783;55.174;61.310;2023-11-21T08:43:51;26.70;17.00
11454;DHT22;5783;55.174;61.310;2023-11-21T08:46:21;26.70;17.10
11454;DHT22;5783;55.174;61.310;2023-11-21T08:48:52;26.80;17.00
11454;DHT22;5783;55.174;61.310;2023-11-21T08:51:22;26.80;16.80
11454;DHT22;5783;55.174;61.310;2023-11-21T08:53:51;26.80;16.80
11454;DHT22;5783;55.174;61.310;2023-11-21T08:56:20;26.90;16.80
11454;DHT22;5783;55.174;61.310;2023-11-21T08:58:49;27.00;16.70
11454;DHT22;5783;55.174;61.310;2023-11-21T09:01:19;27.00;16.80
11454;DHT22;5783;55.174;61.310;2023-11-21T09:03:49;27.00;16.80
11454;DHT22;5783;55.174;61.310;2023-11-21T09:06:18;27.10;16.80
11454;DHT22;5783;55.174;61.310;2023-11-21T09:08:48;27.10;16.80
11454;DHT22;5783;55.174;61.310;2023-11-21T09:11:17;27.10;16.70
11454;DHT22;5783;55.174;61.310;2023-11-21T09:13:47;27.10;16.90
11454;DHT22;5783;55.174;61.310;2023-11-21T09:16:16;27.20;16.30
11454;DHT22;5783;55.174;61.310;2023-11-21T09:18:45;27.10;16.70
11454;DHT22;5783;55.174;61.310;2023-11-21T09:21:14;27.20;16.70
11454;DHT22;5783;55.174;61.310;2023-11-21T09:26:31;27.20;16.80
11454;DHT22;5783;55.174;61.310;2023-11-21T09:28:59;27.20;16.70
11454;DHT22;5783;55.174;61.310;2023-11-21T09:31:28;27.20;16.60
11454;DHT22;5783;55.174;61.310;2023-11-21T09:33:59;27.20;16.60
11454;DHT22;5783;55.174;61.310;2023-11-21T09:36:29;27.20;16.60
11454;DHT22;5783;55.174;61.310;2023-11-21T09:38:59;27.20;16.60
11454;DHT22;5783;55.174;61.310;2023-11-21T09:41:33;27.20;16.80
11454;DHT22;5783;55.174;61.310;2023-11-21T09:44:01;27.20;16.80
11454;DHT22;5783;55.174;61.310;2023-11-21T09:46:30;27.20;16.80
11454;DHT22;5783;55.174;61.310;2023-11-21T09:48:59;27.30;16.80
11454;DHT22;5783;55.174;61.310;2023-11-21T09:51:30;27.30;17.30
11454;DHT22;5783;55.174;61.310;2023-11-21T09:54:01;27.30;17.80
11454;DHT22;5783;55.174;61.310;2023-11-21T09:56:33;27.20;17.40
11454;DHT22;5783;55.174;61.310;2023-11-21T09:59:01;27.20;17.50
11454;DHT22;5783;55.174;61.310;2023-11-21T10:01:31;27.20;17.60
11454;DHT22;5783;55.174;61.310;2023-11-21T10:04:00;27.30;17.50
11454;DHT22;5783;55.174;61.310;2023-11-21T10:06:29;27.30;17.50
11454;DHT22;5783;55.174;61.310;2023-11-21T10:08:59;27.30;17.30
11454;DHT22;5783;55.174;61.310;2023-11-21T10:11:27;27.40;17.30
11454;DHT22;5783;55.174;61.310;2023-11-21T10:13:57;27.30;17.40
11454;DHT22;5783;55.174;61.310;2023-11-21T10:16:26;27.40;17.30
11454;DHT22;5783;55.174;61.310;2023-11-21T10:18:56;27.40;17.30
11454;DHT22;5783;55.174;61.310;2023-11-21T10:21:25;27.40;17.20
11454;DHT22;5783;55.174;61.310;2023-11-21T10:23:54;27.40;17.40
11454;DHT22;5783;55.174;61.310;2023-11-21T10:26:23;27.50;17.20
11454;DHT22;5783;55.174;61.310;2023-11-21T10:31:40;27.60;17.10
11454;DHT22;5783;55.174;61.310;2023-11-21T10:36:58;27.60;16.90
11454;DHT22;5783;55.174;61.310;2023-11-21T10:39:27;27.60;17.00
11454;DHT22;5783;55.174;61.310;2023-11-21T10:41:56;27.60;17.00
11454;DHT22;5783;55.174;61.310;2023-11-21T10:44:25;27.70;17.00
11454;DHT22;5783;55.174;61.310;2023-11-21T10:46:53;27.70;17.00
11454;DHT22;5783;55.174;61.310;2023-11-21T10:49:41;27.70;17.00
11454;DHT22;5783;55.174;61.310;2023-11-21T10:52:09;27.70;17.00
11454;DHT22;5783;55.174;61.310;2023-11-21T10:54:39;27.70;16.90
11454;DHT22;5783;55.174;61.310;2023-11-21T10:57:08;27.70;17.00
11454;DHT22;5783;55.174;61.310;2023-11-21T10:59:39;27.70;16.90
11454;DHT22;5783;55.174;61.310;2023-11-21T11:04:57;27.60;17.40
11454;DHT22;5783;55.174;61.310;2023-11-21T11:07:27;27.60;17.20
11454;DHT22;5783;55.174;61.310;2023-11-21T11:09:58;27.60;17.40
11454;DHT22;5783;55.174;61.310;2023-11-21T11:12:26;27.70;17.40
11454;DHT22;5783;55.174;61.310;2023-11-21T11:14:55;27.70;17.40
11454;DHT22;5783;55.174;61.310;2023-11-21T11:17:24;27.70;17.40
11454;DHT22;5783;55.174;61.310;2023-11-21T11:19:52;27.70;17.30
11454;DHT22;5783;55.174;61.310;2023-11-21T11:42:01;27.70;18.80
11454;DHT22;5783;55.174;61.310;2023-11-21T11:52:53;27.80;17.70
11454;DHT22;5783;55.174;61.310;2023-11-21T11:55:24;27.80;17.80
11454;DHT22;5783;55.174;61.310;2023-11-21T11:57:54;27.90;17.90
11454;DHT22;5783;55.174;61.310;2023-11-21T12:00:33;27.90;17.70
11454;DHT22;5783;55.174;61.310;2023-11-21T12:05:40;27.90;17.50
11454;DHT22;5783;55.174;61.310;2023-11-21T12:08:10;27.90;17.50
11454;DHT22;5783;55.174;61.310;2023-11-21T12:10:39;27.90;17.50
11454;DHT22;5783;55.174;61.310;2023-11-21T12:13:09;27.90;17.30
11454;DHT22;5783;55.174;61.310;2023-11-21T12:15:39;27.90;17.10
11454;DHT22;5783;55.174;61.310;2023-11-21T12:18:07;27.90;17.20
11454;DHT22;5783;55.174;61.310;2023-11-21T12:20:35;27.90;17.10
11454;DHT22;5783;55.174;61.310;2023-11-21T12:23:23;27.90;16.90
11454;DHT22;5783;55.174;61.310;2023-11-21T12:25:52;27.80;16.80
11454;DHT22;5783;55.174;61.310;2023-11-21T12:28:20;27.80;16.80
11454;DHT22;5783;55.174;61.310;2023-11-21T12:30:49;27.80;16.70
11454;DHT22;5783;55.174;61.310;2023-11-21T12:33:17;27.80;16.90
11454;DHT22;5783;55.174;61.310;2023-11-21T12:35:45;27.80;16.70
11454;DHT22;5783;55.174;61.310;2023-11-21T12:40:44;27.80;16.60
11454;DHT22;5783;55.174;61.310;2023-11-21T12:43:12;27.80;16.60
11454;DHT22;5783;55.174;61.310;2023-11-21T12:45:41;27.80;16.70
11454;DHT22;5783;55.174;61.310;2023-11-21T12:48:09;27.80;16.60
11454;DHT22;5783;55.174;61.310;2023-11-21T12:50:38;27.80;16.70
11454;DHT22;5783;55.174;61.310;2023-11-21T12:53:08;27.80;16.80
11454;DHT22;5783;55.174;61.310;2023-11-21T12:55:39;27.80;16.70
11454;DHT22;5783;55.174;61.310;2023-11-21T12:58:08;27.80;16.60
11454;DHT22;5783;55.174;61.310;2023-11-21T13:00:39;27.80;16.60
11454;DHT22;5783;55.174;61.310;2023-11-21T13:03:08;27.80;16.50
11454;DHT22;5783;55.174;61.310;2023-11-21T13:05:39;27.80;16.50
11454;DHT22;5783;55.174;61.310;2023-11-21T13:08:27;27.80;16.60
11454;DHT22;5783;55.174;61.310;2023-11-21T13:10:56;27.80;16.50
11454;DHT22;5783;55.174;61.310;2023-11-21T13:13:25;27.80;16.50
11454;DHT22;5783;55.174;61.310;2023-11-21T13:15:55;27.80;16.60
11454;DHT22;5783;55.174;61.310;2023-11-21T13:21:11;27.70;16.60
11454;DHT22;5783;55.174;61.310;2023-11-21T13:23:40;27.60;16.80
11454;DHT22;5783;55.174;61.310;2023-11-21T13:26:10;27.60;16.70
11454;DHT22;5783;55.174;61.310;2023-11-21T13:28:40;27.60;16.80
11454;DHT22;5783;55.174;61.310;2023-11-21T13:31:10;27.50;16.70
11454;DHT22;5783;55.174;61.310;2023-11-21T13:33:58;27.60;16.60
11454;DHT22;5783;55.174;61.310;2023-11-21T13:36:28;27.60;16.70
11454;DHT22;5783;55.174;61.310;2023-11-21T13:38:58;27.60;16.50
11454;DHT22;5783;55.174;61.310;2023-11-21T13:41:27;27.60;16.60
11454;DHT22;5783;55.174;61.310;2023-11-21T13:43:56;27.60;16.50
11454;DHT22;5783;55.174;61.310;2023-11-21T13:46:44;27.60;16.50
11454;DHT22;5783;55.174;61.310;2023-11-21T13:49:12;27.60;16.50
11454;DHT22;5783;55.174;61.310;2023-11-21T13:51:43;27.70;16.60
11454;DHT22;5783;55.174;61.310;2023-11-21T13:54:12;27.70;16.60
11454;DHT22;5783;55.174;61.310;2023-11-21T13:56:41;27.70;16.70
11454;DHT22;5783;55.174;61.310;2023-11-21T13:59:10;27.70;16.80
11454;DHT22;5783;55.174;61.310;2023-11-21T14:01:58;27.70;16.80
11454;DHT22;5783;55.174;61.310;2023-11-21T14:04:28;27.70;16.80
11454;DHT22;5783;55.174;61.310;2023-11-21T14:07:18;27.80;16.80
11454;DHT22;5783;55.174;61.310;2023-11-21T14:10:06;27.70;16.90
11454;DHT22;5783;55.174;61.310;2023-11-21T14:12:36;27.70;16.90
11454;DHT22;5783;55.174;61.310;2023-11-21T14:15:06;27.70;16.80
11454;DHT22;5783;55.174;61.310;2023-11-21T14:17:35;27.70;16.90
11454;DHT22;5783;55.174;61.310;2023-11-21T14:20:06;27.80;17.00
11454;DHT22;5783;55.174;61.310;2023-11-21T14:22:36;27.70;17.00
11454;DHT22;5783;55.174;61.310;2023-11-21T14:25:04;27.60;17.60
11454;DHT22;5783;55.174;61.310;2023-11-21T14:27:32;27.70;17.70
11454;DHT22;5783;55.174;61.310;2023-11-21T14:30:02;27.70;17.40
11454;DHT22;5783;55.174;61.310;2023-11-21T14:32:31;27.70;17.30
11454;DHT22;5783;55.174;61.310;2023-11-21T14:34:59;27.80;17.30
11454;DHT22;5783;55.174;61.310;2023-11-21T14:37:29;27.80;17.00
11454;DHT22;5783;55.174;61.310;2023-11-21T14:39:57;27.90;16.90
11454;DHT22;5783;55.174;61.310;2023-11-21T14:42:25;27.90;16.80
11454;DHT22;5783;55.174;61.310;2023-11-21T14:44:55;27.90;16.70
11454;DHT22;5783;55.174;61.310;2023-11-21T14:47:25;28.00;16.80
11454;DHT22;5783;55.174;61.310;2023-11-21T14:49:53;28.00;16.70
11454;DHT22;5783;55.174;61.310;2023-11-21T14:52:22;27.90;16.70
11454;DHT22;5783;55.174;61.310;2023-11-21T14:55:10;27.80;16.70
11454;DHT22;5783;55.174;61.310;2023-11-21T14:57:58;27.80;16.80
11454;DHT22;5783;55.174;61.310;2023-11-21T15:00:28;27.80;17.50
11454;DHT22;5783;55.174;61.310;2023-11-21T15:03:15;27.80;17.20
11454;DHT22;5783;55.174;61.310;2023-11-21T15:06:03;27.70;17.30
11454;DHT22;5783;55.174;61.310;2023-11-21T15:11:41;27.60;17.40
11454;DHT22;5783;55.174;61.310;2023-11-21T15:14:09;27.60;17.30
11454;DHT22;5783;55.174;61.310;2023-11-21T15:16:39;27.60;17.40
11454;DHT22;5783;55.174;61.310;2023-11-21T15:19:09;27.70;17.40
11454;DHT22;5783;55.174;61.310;2023-11-21T15:21:39;27.70;17.20
11454;DHT22;5783;55.174;61.310;2023-11-21T15:24:07;27.60;17.20
11454;DHT22;5783;55.174;61.310;2023-11-21T15:26:36;27.60;17.30
11454;DHT22;5783;55.174;61.310;2023-11-21T15:29:05;27.70;17.20
11454;DHT22;5783;55.174;61.310;2023-11-21T15:31:33;27.60;17.20
11454;DHT22;5783;55.174;61.310;2023-11-21T15:34:03;27.60;17.20
11454;DHT22;5783;55.174;61.310;2023-11-21T15:36:31;27.70;17.10
11454;DHT22;5783;55.174;61.310;2023-11-21T15:39:00;27.60;17.30
11454;DHT22;5783;55.174;61.310;2023-11-21T15:41:28;27.60;17.20
11454;DHT22;5783;55.174;61.310;2023-11-21T15:43:57;27.50;17.30
11454;DHT22;5783;55.174;61.310;2023-11-21T15:46:25;27.50;17.40
11454;DHT22;5783;55.174;61.310;2023-11-21T15:48:53;27.60;17.40
11454;DHT22;5783;55.174;61.310;2023-11-21T15:51:22;27.60;17.40
11454;DHT22;5783;55.174;61.310;2023-11-21T15:53:51;27.60;17.50
11454;DHT22;5783;55.174;61.310;2023-11-21T15:56:19;27.70;17.40
11454;DHT22;5783;55.174;61.310;2023-11-21T15:58:48;27.70;17.40
11454;DHT22;5783;55.174;61.310;2023-11-21T16:01:18;27.80;17.40
11454;DHT22;5783;55.174;61.310;2023-11-21T16:03:47;27.80;17.40
11454;DHT22;5783;55.174;61.310;2023-11-21T16:06:16;27.80;17.30
11454;DHT22;5783;55.174;61.310;2023-11-21T16:08:44;27.80;17.20
11454;DHT22;5783;55.174;61.310;2023-11-21T16:11:14;27.80;17.20
11454;DHT22;5783;55.174;61.310;2023-11-21T16:13:42;27.80;17.30
11454;DHT22;5783;55.174;61.310;2023-11-21T16:16:12;27.80;17.40
11454;DHT22;5783;55.174;61.310;2023-11-21T16:18:41;27.80;17.20
11454;DHT22;5783;55.174;61.310;2023-11-21T16:21:10;27.70;17.20
11454;DHT22;5783;55.174;61.310;2023-11-21T16:23:40;27.60;17.20
11454;DHT22;5783;55.174;61.310;2023-11-21T16:26:08;27.60;17.30
11454;DHT22;5783;55.174;61.310;2023-11-21T16:28:38;27.50;17.40
11454;DHT22;5783;55.174;61.310;2023-11-21T16:31:07;27.50;17.60
11454;DHT22;5783;55.174;61.310;2023-11-21T16:33:36;27.40;17.40
11454;DHT22;5783;55.174;61.310;2023-11-21T16:36:05;27.50;17.50
11454;DHT22;5783;55.174;61.310;2023-11-21T16:38:33;27.50;17.50
11454;DHT22;5783;55.174;61.310;2023-11-21T16:41:01;27.50;17.50